sensor_id;sensor_type;location;lat;lon;timestamp;P1;durP1;ratioP1;P2;durP2;ratioP2
23115;SDS011;11727;52.134;5.052;2022-07-31T15:10:35;3.65;;;1.90;;
23115;SDS011;11727;52.134;5.052;2022-07-31T15:13:00;3.55;;;1.83;;
23115;SDS011;11727;52.134;5.052;2022-07-31T15:15:26;3.10;;;1.30;;
23115;SDS011;11727;52.134;5.052;2022-07-31T15:17:52;7.88;;;1.95;;
23115;SDS011;11727;52.134;5.052;2022-07-31T15:20:17;3.95;;;1.70;;
23115;SDS011;11727;52.134;5.052;2022-07-31T15:22:43;3.00;;;1.40;;
23115;SDS011;11727;52.134;5.052;2022-07-31T15:25:08;3.38;;;1.48;;
23115;SDS011;11727;52.134;5.052;2022-07-31T15:27:34;3.78;;;1.80;;
23115;SDS011;11727;52.134;5.052;2022-07-31T15:30:00;5.38;;;2.03;;
23115;SDS011;11727;52.134;5.052;2022-07-31T15:32:25;3.67;;;1.80;;
23115;SDS011;11727;52.134;5.052;2022-07-31T15:34:51;5.00;;;2.30;;
23115;SDS011;11727;52.134;5.052;2022-07-31T15:37:17;8.18;;;2.40;;
23115;SDS011;11727;52.134;5.052;2022-07-31T15:39:42;3.38;;;2.10;;
23115;SDS011;11727;52.134;5.052;2022-07-31T15:42:08;4.55;;;2.88;;
23115;SDS011;11727;52.134;5.052;2022-07-31T15:44:33;5.35;;;3.58;;
23115;SDS011;11727;52.134;5.052;2022-07-31T15:46:59;6.07;;;2.78;;
23115;SDS011;11727;52.134;5.052;2022-07-31T15:49:24;3.92;;;2.83;;
23115;SDS011;11727;52.134;5.052;2022-07-31T15:51:50;6.35;;;2.92;;
23115;SDS011;11727;52.134;5.052;2022-07-31T15:54:15;7.82;;;3.83;;
23115;SDS011;11727;52.134;5.052;2022-07-31T15:56:41;9.95;;;4.30;;
23115;SDS011;11727;52.134;5.052;2022-07-31T15:59:07;6.53;;;3.58;;
23115;SDS011;11727;52.134;5.052;2022-07-31T16:01:32;6.65;;;4.10;;
23115;SDS011;11727;52.134;5.052;2022-07-31T16:03:58;7.35;;;3.95;;
23115;SDS011;11727;52.134;5.052;2022-07-31T16:06:24;9.93;;;4.38;;
23115;SDS011;11727;52.134;5.052;2022-07-31T16:08:49;8.45;;;3.95;;
23115;SDS011;11727;52.134;5.052;2022-07-31T16:11:15;8.98;;;3.95;;
23115;SDS011;11727;52.134;5.052;2022-07-31T16:13:43;6.35;;;3.45;;
23115;SDS011;11727;52.134;5.052;2022-07-31T16:16:09;6.80;;;3.22;;
23115;SDS011;11727;52.134;5.052;2022-07-31T16:18:35;6.03;;;3.15;;
23115;SDS011;11727;52.134;5.052;2022-07-31T16:21:00;5.25;;;2.85;;
23115;SDS011;11727;52.134;5.052;2022-07-31T16:23:26;8.07;;;2.78;;
23115;SDS011;11727;52.134;5.052;2022-07-31T16:25:52;5.03;;;2.80;;
23115;SDS011;11727;52.134;5.052;2022-07-31T16:28:18;6.40;;;2.83;;
23115;SDS011;11727;52.134;5.052;2022-07-31T16:30:44;9.32;;;3.20;;
23115;SDS011;11727;52.134;5.052;2022-07-31T16:33:10;6.57;;;2.20;;
23115;SDS011;11727;52.134;5.052;2022-07-31T16:35:36;7.53;;;2.63;;
23115;SDS011;11727;52.134;5.052;2022-07-31T16:38:01;5.57;;;2.20;;
23115;SDS011;11727;52.134;5.052;2022-07-31T16:40:27;4.72;;;2.22;;
23115;SDS011;11727;52.134;5.052;2022-07-31T16:42:52;9.05;;;2.63;;
23115;SDS011;11727;52.134;5.052;2022-07-31T16:45:18;9.48;;;2.20;;
23115;SDS011;11727;52.134;5.052;2022-07-31T16:47:44;7.68;;;2.60;;
23115;SDS011;11727;52.134;5.052;2022-07-31T16:50:09;6.40;;;2.47;;
23115;SDS011;11727;52.134;5.052;2022-07-31T16:52:35;8.00;;;2.53;;
23115;SDS011;11727;52.134;5.052;2022-07-31T16:55:01;5.03;;;2.30;;
23115;SDS011;11727;52.134;5.052;2022-07-31T16:57:27;3.30;;;1.67;;
23115;SDS011;11727;52.134;5.052;2022-07-31T16:59:53;9.18;;;2.20;;
23115;SDS011;11727;52.134;5.052;2022-07-31T17:02:18;8.43;;;2.83;;
23115;SDS011;11727;52.134;5.052;2022-07-31T17:04:44;5.97;;;2.15;;
23115;SDS011;11727;52.134;5.052;2022-07-31T17:07:10;6.53;;;2.47;;
23115;SDS011;11727;52.134;5.052;2022-07-31T17:09:35;4.10;;;1.98;;
23115;SDS011;11727;52.134;5.052;2022-07-31T17:12:01;7.53;;;3.15;;
23115;SDS011;11727;52.134;5.052;2022-07-31T17:14:28;7.57;;;2.60;;
23115;SDS011;11727;52.134;5.052;2022-07-31T17:16:53;9.95;;;2.20;;
23115;SDS011;11727;52.134;5.052;2022-07-31T17:19:21;8.57;;;2.28;;
23115;SDS011;11727;52.134;5.052;2022-07-31T17:24:16;6.80;;;2.63;;
23115;SDS011;11727;52.134;5.052;2022-07-31T17:26:43;8.73;;;2.15;;
23115;SDS011;11727;52.134;5.052;2022-07-31T17:29:09;8.43;;;2.47;;
23115;SDS011;11727;52.134;5.052;2022-07-31T17:31:35;4.43;;;2.33;;
23115;SDS011;11727;52.134;5.052;2022-07-31T17:34:04;5.78;;;2.00;;
23115;SDS011;11727;52.134;5.052;2022-07-31T17:36:30;4.30;;;2.08;;
23115;SDS011;11727;52.134;5.052;2022-07-31T17:38:56;5.20;;;2.00;;
23115;SDS011;11727;52.134;5.052;2022-07-31T17:41:21;4.45;;;1.88;;
23115;SDS011;11727;52.134;5.052;2022-07-31T17:43:47;9.48;;;2.17;;
23115;SDS011;11727;52.134;5.052;2022-07-31T17:46:13;5.95;;;2.20;;
23115;SDS011;11727;52.134;5.052;2022-07-31T17:48:38;5.43;;;1.95;;
23115;SDS011;11727;52.134;5.052;2022-07-31T17:51:04;8.05;;;1.90;;
23115;SDS011;11727;52.134;5.052;2022-07-31T17:53:29;11.25;;;2.67;;
23115;SDS011;11727;52.134;5.052;2022-07-31T17:55:55;6.38;;;2.40;;
23115;SDS011;11727;52.134;5.052;2022-07-31T17:58:20;14.40;;;2.55;;
23115;SDS011;11727;52.134;5.052;2022-07-31T18:00:49;5.80;;;2.47;;
23115;SDS011;11727;52.134;5.052;2022-07-31T18:03:16;8.05;;;2.17;;
23115;SDS011;11727;52.134;5.052;2022-07-31T18:05:42;8.70;;;2.40;;
23115;SDS011;11727;52.134;5.052;2022-07-31T18:08:08;5.85;;;2.50;;
23115;SDS011;11727;52.134;5.052;2022-07-31T18:10:33;7.53;;;3.00;;
23115;SDS011;11727;52.134;5.052;2022-07-31T18:12:59;12.40;;;2.75;;
23115;SDS011;11727;52.134;5.052;2022-07-31T18:15:24;4.65;;;2.20;;
23115;SDS011;11727;52.134;5.052;2022-07-31T18:17:50;7.90;;;2.75;;
23115;SDS011;11727;52.134;5.052;2022-07-31T18:20:18;10.23;;;2.92;;
23115;SDS011;11727;52.134;5.052;2022-07-31T18:22:45;8.68;;;2.40;;
23115;SDS011;11727;52.134;5.052;2022-07-31T18:25:11;8.27;;;2.80;;
23115;SDS011;11727;52.134;5.052;2022-07-31T18:27:38;8.27;;;2.70;;
23115;SDS011;11727;52.134;5.052;2022-07-31T18:30:04;8.90;;;2.72;;
23115;SDS011;11727;52.134;5.052;2022-07-31T18:32:33;10.95;;;2.42;;
23115;SDS011;11727;52.134;5.052;2022-07-31T18:35:02;7.72;;;2.28;;
23115;SDS011;11727;52.134;5.052;2022-07-31T18:37:28;5.88;;;2.90;;
23115;SDS011;11727;52.134;5.052;2022-07-31T18:39:56;6.45;;;2.80;;
23115;SDS011;11727;52.134;5.052;2022-07-31T18:42:23;11.85;;;3.08;;
23115;SDS011;11727;52.134;5.052;2022-07-31T18:44:52;10.75;;;2.92;;
23115;SDS011;11727;52.134;5.052;2022-07-31T18:47:21;8.80;;;3.42;;
23115;SDS011;11727;52.134;5.052;2022-07-31T18:49:47;8.05;;;2.45;;
23115;SDS011;11727;52.134;5.052;2022-07-31T18:52:13;9.82;;;2.80;;
23115;SDS011;11727;52.134;5.052;2022-07-31T18:54:39;6.43;;;2.20;;
23115;SDS011;11727;52.134;5.052;2022-07-31T18:57:04;5.25;;;2.15;;
23115;SDS011;11727;52.134;5.052;2022-07-31T18:59:31;11.53;;;4.20;;
23115;SDS011;11727;52.134;5.052;2022-07-31T19:01:57;8.35;;;2.67;;
23115;SDS011;11727;52.134;5.052;2022-07-31T19:04:25;17.35;;;2.85;;
23115;SDS011;11727;52.134;5.052;2022-07-31T19:09:17;11.40;;;2.95;;
23115;SDS011;11727;52.134;5.052;2022-07-31T19:11:43;13.55;;;3.83;;
23115;SDS011;11727;52.134;5.052;2022-07-31T19:14:09;6.93;;;2.85;;
23115;SDS011;11727;52.134;5.052;2022-07-31T19:16:39;4.10;;;1.92;;
23115;SDS011;11727;52.134;5.052;2022-07-31T19:19:04;5.15;;;2.40;;
23115;SDS011;11727;52.134;5.052;2022-07-31T19:21:30;7.88;;;2.90;;
23115;SDS011;11727;52.134;5.052;2022-07-31T19:23:56;6.78;;;3.35;;
23115;SDS011;11727;52.134;5.052;2022-07-31T19:26:21;8.80;;;3.60;;
23115;SDS011;11727;52.134;5.052;2022-07-31T19:28:47;6.70;;;2.50;;
23115;SDS011;11727;52.134;5.052;2022-07-31T19:31:12;8.50;;;3.03;;
23115;SDS011;11727;52.134;5.052;2022-07-31T19:33:38;8.45;;;3.15;;
23115;SDS011;11727;52.134;5.052;2022-07-31T19:36:04;9.82;;;3.50;;
23115;SDS011;11727;52.134;5.052;2022-07-31T19:38:30;12.52;;;3.13;;
23115;SDS011;11727;52.134;5.052;2022-07-31T19:40:58;16.15;;;3.92;;
23115;SDS011;11727;52.134;5.052;2022-07-31T19:43:24;6.88;;;2.20;;
23115;SDS011;11727;52.134;5.052;2022-07-31T19:45:49;6.07;;;2.22;;
23115;SDS011;11727;52.134;5.052;2022-07-31T19:48:15;8.27;;;3.10;;
23115;SDS011;11727;52.134;5.052;2022-07-31T19:50:41;6.68;;;2.83;;
23115;SDS011;11727;52.134;5.052;2022-07-31T19:53:06;7.60;;;2.65;;
23115;SDS011;11727;52.134;5.052;2022-07-31T19:55:32;7.22;;;2.70;;
23115;SDS011;11727;52.134;5.052;2022-07-31T19:57:58;11.70;;;3.88;;
23115;SDS011;11727;52.134;5.052;2022-07-31T20:00:23;9.85;;;2.72;;
23115;SDS011;11727;52.134;5.052;2022-07-31T20:02:49;10.32;;;3.15;;
23115;SDS011;11727;52.134;5.052;2022-07-31T20:05:14;6.65;;;2.35;;
23115;SDS011;11727;52.134;5.052;2022-07-31T20:07:40;16.33;;;2.83;;
23115;SDS011;11727;52.134;5.052;2022-07-31T20:10:06;6.70;;;2.30;;
23115;SDS011;11727;52.134;5.052;2022-07-31T20:12:36;10.38;;;2.45;;
23115;SDS011;11727;52.134;5.052;2022-07-31T20:15:03;12.15;;;3.10;;
23115;SDS011;11727;52.134;5.052;2022-07-31T20:17:30;7.60;;;3.05;;
23115;SDS011;11727;52.134;5.052;2022-07-31T20:19:56;14.23;;;3.25;;
23115;SDS011;11727;52.134;5.052;2022-07-31T20:22:21;13.23;;;2.90;;
23115;SDS011;11727;52.134;5.052;2022-07-31T20:24:47;9.73;;;2.65;;
23115;SDS011;11727;52.134;5.052;2022-07-31T20:27:17;7.75;;;2.40;;
23115;SDS011;11727;52.134;5.052;2022-07-31T20:29:42;8.82;;;2.53;;
23115;SDS011;11727;52.134;5.052;2022-07-31T20:32:08;10.25;;;2.50;;
23115;SDS011;11727;52.134;5.052;2022-07-31T20:34:34;19.23;;;3.58;;
23115;SDS011;11727;52.134;5.052;2022-07-31T20:36:59;5.13;;;2.90;;
23115;SDS011;11727;52.134;5.052;2022-07-31T20:39:25;10.43;;;1.95;;
23115;SDS011;11727;52.134;5.052;2022-07-31T20:41:52;12.77;;;2.30;;
23115;SDS011;11727;52.134;5.052;2022-07-31T20:44:17;5.95;;;2.83;;
23115;SDS011;11727;52.134;5.052;2022-07-31T20:46:43;5.28;;;1.80;;
23115;SDS011;11727;52.134;5.052;2022-07-31T20:49:09;3.80;;;2.05;;
23115;SDS011;11727;52.134;5.052;2022-07-31T20:51:35;8.15;;;2.55;;
23115;SDS011;11727;52.134;5.052;2022-07-31T20:54:01;7.38;;;2.30;;
23115;SDS011;11727;52.134;5.052;2022-07-31T20:56:27;10.38;;;2.83;;
23115;SDS011;11727;52.134;5.052;2022-07-31T20:58:52;8.63;;;2.33;;
23115;SDS011;11727;52.134;5.052;2022-07-31T21:01:19;11.32;;;2.75;;
23115;SDS011;11727;52.134;5.052;2022-07-31T21:03:45;5.50;;;2.55;;
23115;SDS011;11727;52.134;5.052;2022-07-31T21:06:11;6.93;;;3.03;;
23115;SDS011;11727;52.134;5.052;2022-07-31T21:08:37;4.05;;;2.30;;
23115;SDS011;11727;52.134;5.052;2022-07-31T21:11:06;6.65;;;2.63;;
23115;SDS011;11727;52.134;5.052;2022-07-31T21:13:32;7.50;;;2.60;;
23115;SDS011;11727;52.134;5.052;2022-07-31T21:16:00;5.10;;;2.40;;
23115;SDS011;11727;52.134;5.052;2022-07-31T21:18:26;5.35;;;2.83;;
23115;SDS011;11727;52.134;5.052;2022-07-31T21:20:54;5.55;;;3.08;;
23115;SDS011;11727;52.134;5.052;2022-07-31T21:23:20;9.15;;;3.50;;
23115;SDS011;11727;52.134;5.052;2022-07-31T21:25:47;6.53;;;3.22;;
23115;SDS011;11727;52.134;5.052;2022-07-31T21:28:13;7.57;;;3.13;;
23115;SDS011;11727;52.134;5.052;2022-07-31T21:30:39;6.38;;;3.47;;
23115;SDS011;11727;52.134;5.052;2022-07-31T21:33:05;9.43;;;3.47;;
23115;SDS011;11727;52.134;5.052;2022-07-31T21:35:32;4.97;;;3.15;;
23115;SDS011;11727;52.134;5.052;2022-07-31T21:38:00;11.02;;;4.18;;
23115;SDS011;11727;52.134;5.052;2022-07-31T21:40:27;5.75;;;2.90;;
23115;SDS011;11727;52.134;5.052;2022-07-31T21:42:53;5.20;;;2.83;;
23115;SDS011;11727;52.134;5.052;2022-07-31T21:45:19;5.15;;;2.72;;
23115;SDS011;11727;52.134;5.052;2022-07-31T21:47:45;10.10;;;3.70;;
23115;SDS011;11727;52.134;5.052;2022-07-31T21:50:12;5.85;;;2.63;;
23115;SDS011;11727;52.134;5.052;2022-07-31T21:52:38;12.45;;;3.30;;
23115;SDS011;11727;52.134;5.052;2022-07-31T21:55:04;8.13;;;3.13;;
23115;SDS011;11727;52.134;5.052;2022-07-31T21:57:33;6.05;;;2.80;;
23115;SDS011;11727;52.134;5.052;2022-07-31T21:59:59;7.53;;;2.65;;
23115;SDS011;11727;52.134;5.052;2022-07-31T22:02:26;5.38;;;3.20;;
23115;SDS011;11727;52.134;5.052;2022-07-31T22:04:52;6.38;;;2.88;;
23115;SDS011;11727;52.134;5.052;2022-07-31T22:07:42;7.10;;;3.00;;
23115;SDS011;11727;52.134;5.052;2022-07-31T22:10:09;3.92;;;2.45;;
23115;SDS011;11727;52.134;5.052;2022-07-31T22:12:36;5.70;;;3.15;;
23115;SDS011;11727;52.134;5.052;2022-07-31T22:15:03;5.07;;;2.65;;
23115;SDS011;11727;52.134;5.052;2022-07-31T22:17:30;11.27;;;3.67;;
23115;SDS011;11727;52.134;5.052;2022-07-31T22:19:55;5.05;;;2.47;;
23115;SDS011;11727;52.134;5.052;2022-07-31T22:22:24;4.05;;;2.60;;
23115;SDS011;11727;52.134;5.052;2022-07-31T22:24:51;4.53;;;2.40;;
23115;SDS011;11727;52.134;5.052;2022-07-31T22:27:17;4.57;;;1.92;;
23115;SDS011;11727;52.134;5.052;2022-07-31T22:30:05;2.83;;;1.70;;
23115;SDS011;11727;52.134;5.052;2022-07-31T22:32:32;4.00;;;2.17;;
23115;SDS011;11727;52.134;5.052;2022-07-31T22:34:58;4.40;;;1.80;;
23115;SDS011;11727;52.134;5.052;2022-07-31T22:37:27;2.63;;;1.33;;
23115;SDS011;11727;52.134;5.052;2022-07-31T22:39:52;3.58;;;1.73;;
23115;SDS011;11727;52.134;5.052;2022-07-31T22:42:19;2.88;;;1.35;;
23115;SDS011;11727;52.134;5.052;2022-07-31T22:44:45;3.90;;;1.65;;
23115;SDS011;11727;52.134;5.052;2022-07-31T22:47:14;3.83;;;1.38;;
23115;SDS011;11727;52.134;5.052;2022-07-31T22:49:41;3.88;;;2.10;;
23115;SDS011;11727;52.134;5.052;2022-07-31T22:52:07;2.55;;;1.45;;
23115;SDS011;11727;52.134;5.052;2022-07-31T22:54:37;3.55;;;1.88;;
23115;SDS011;11727;52.134;5.052;2022-07-31T22:57:03;2.90;;;1.45;;
23115;SDS011;11727;52.134;5.052;2022-07-31T22:59:29;3.05;;;1.15;;
23115;SDS011;11727;52.134;5.052;2022-07-31T23:01:55;1.25;;;0.88;;
23115;SDS011;11727;52.134;5.052;2022-07-31T23:04:21;4.25;;;2.17;;
23115;SDS011;11727;52.134;5.052;2022-07-31T23:06:46;2.55;;;1.13;;
23115;SDS011;11727;52.134;5.052;2022-07-31T23:09:12;4.57;;;1.67;;
23115;SDS011;11727;52.134;5.052;2022-07-31T23:11:38;2.80;;;1.10;;
23115;SDS011;11727;52.134;5.052;2022-07-31T23:14:03;3.08;;;1.50;;
23115;SDS011;11727;52.134;5.052;2022-07-31T23:16:29;3.13;;;1.27;;
23115;SDS011;11727;52.134;5.052;2022-07-31T23:18:54;1.52;;;1.10;;
23115;SDS011;11727;52.134;5.052;2022-07-31T23:21:23;3.25;;;1.63;;
23115;SDS011;11727;52.134;5.052;2022-07-31T23:23:49;4.35;;;1.40;;
23115;SDS011;11727;52.134;5.052;2022-07-31T23:26:20;5.25;;;1.98;;
23115;SDS011;11727;52.134;5.052;2022-07-31T23:28:47;2.72;;;1.60;;
23115;SDS011;11727;52.134;5.052;2022-07-31T23:31:14;2.97;;;1.48;;
23115;SDS011;11727;52.134;5.052;2022-07-31T23:33:40;2.45;;;1.38;;
23115;SDS011;11727;52.134;5.052;2022-07-31T23:36:06;3.05;;;1.45;;
23115;SDS011;11727;52.134;5.052;2022-07-31T23:38:32;3.88;;;1.77;;
23115;SDS011;11727;52.134;5.052;2022-07-31T23:40:57;6.72;;;1.42;;
23115;SDS011;11727;52.134;5.052;2022-07-31T23:43:23;1.95;;;1.25;;
23115;SDS011;11727;52.134;5.052;2022-07-31T23:45:51;3.90;;;1.15;;
23115;SDS011;11727;52.134;5.052;2022-07-31T23:48:19;3.60;;;1.90;;
23115;SDS011;11727;52.134;5.052;2022-07-31T23:50:45;5.10;;;1.95;;
23115;SDS011;11727;52.134;5.052;2022-07-31T23:53:10;3.67;;;2.30;;
23115;SDS011;11727;52.134;5.052;2022-07-31T23:55:36;7.10;;;2.25;;
23115;SDS011;11727;52.134;5.052;2022-07-31T23:58:02;5.70;;;2.38;;
